createdAt,value
2018-02-10T00:00:10.896Z,1007.93
2018-02-10T00:01:10.867Z,1007.93
2018-02-10T00:02:10.845Z,1007.94
2018-02-10T00:03:10.816Z,1007.94
2018-02-10T00:04:10.795Z,1007.90
2018-02-10T00:05:10.771Z,1007.92
2018-02-10T00:06:10.739Z,1007.91
2018-02-10T00:07:10.726Z,1007.88
2018-02-10T00:08:10.691Z,1007.86
2018-02-10T00:09:10.750Z,1007.92
2018-02-10T00:10:10.640Z,1007.91
2018-02-10T00:11:10.608Z,1007.91
2018-02-10T00:12:10.591Z,1007.87
2018-02-10T00:13:10.556Z,1007.92
2018-02-10T00:14:10.529Z,1007.91
2018-02-10T00:15:10.508Z,1007.90
2018-02-10T00:16:10.476Z,1007.88
2018-02-10T00:17:10.467Z,1007.90
2018-02-10T00:18:10.436Z,1007.92
2018-02-10T00:19:10.398Z,1007.92
2018-02-10T00:20:10.370Z,1007.96
2018-02-10T00:21:10.346Z,1007.99
2018-02-10T00:22:10.321Z,1007.94
2018-02-10T00:23:10.295Z,1007.93
2018-02-10T00:24:10.271Z,1007.96
2018-02-10T00:25:10.242Z,1007.96
2018-02-10T00:26:10.219Z,1007.94
2018-02-10T00:27:10.196Z,1007.94
2018-02-10T00:28:10.164Z,1007.91
2018-02-10T00:29:10.147Z,1007.91
2018-02-10T00:30:10.115Z,1007.91
2018-02-10T00:31:10.090Z,1007.90
2018-02-10T00:32:10.065Z,1007.86
2018-02-10T00:33:10.043Z,1007.87
2018-02-10T00:34:10.029Z,1007.87
2018-02-10T00:35:09.990Z,1007.86
2018-02-10T00:36:09.963Z,1007.86
2018-02-10T00:37:09.934Z,1007.84
2018-02-10T00:38:09.915Z,1007.83
2018-02-10T00:39:09.887Z,1007.84
2018-02-10T00:40:09.858Z,1007.86
2018-02-10T00:41:09.839Z,1007.90
2018-02-10T00:42:09.805Z,1007.86
2018-02-10T00:43:09.778Z,1007.92
2018-02-10T00:44:09.752Z,1007.92
2018-02-10T00:45:09.750Z,1007.94
2018-02-10T00:46:09.707Z,1007.92
2018-02-10T00:47:09.689Z,1007.92
2018-02-10T00:48:09.662Z,1007.90
2018-02-10T00:49:09.638Z,1007.92
2018-02-10T00:50:09.626Z,1007.91
2018-02-10T00:51:09.612Z,1007.89
2018-02-10T00:52:09.548Z,1007.92
2018-02-10T00:53:09.522Z,1007.96
2018-02-10T00:54:09.497Z,1007.93
2018-02-10T00:55:09.471Z,1007.92
2018-02-10T00:56:09.449Z,1007.93
2018-02-10T00:57:09.420Z,1007.92
2018-02-10T00:58:09.393Z,1007.92
2018-02-10T00:59:09.423Z,1007.95
2018-02-10T01:00:09.347Z,1007.94
2018-02-10T01:01:09.319Z,1007.97
2018-02-10T01:02:09.290Z,1007.97
2018-02-10T01:03:09.270Z,1007.98
2018-02-10T01:04:09.239Z,1007.98
2018-02-10T01:05:09.223Z,1007.98
2018-02-10T01:06:09.245Z,1007.99
2018-02-10T01:07:09.163Z,1007.99
2018-02-10T01:08:09.137Z,1007.95
2018-02-10T01:09:09.112Z,1007.97
2018-02-10T01:10:09.092Z,1007.97
2018-02-10T01:11:09.060Z,1007.94
2018-02-10T01:12:09.038Z,1007.97
2018-02-10T01:13:09.053Z,1007.95
2018-02-10T01:14:08.984Z,1007.95
2018-02-10T01:15:08.959Z,1007.93
2018-02-10T01:16:08.943Z,1007.99
2018-02-10T01:17:08.908Z,1007.98
2018-02-10T01:18:08.883Z,1008.00
2018-02-10T01:19:08.857Z,1007.98
2018-02-10T01:20:08.830Z,1007.97
2018-02-10T01:21:08.814Z,1007.99
2018-02-10T01:22:08.780Z,1008.00
2018-02-10T01:23:08.755Z,1008.01
2018-02-10T01:24:08.743Z,1008.01
2018-02-10T01:25:08.702Z,1008.03
2018-02-10T01:26:08.679Z,1008.01
2018-02-10T01:27:08.756Z,1008.00
2018-02-10T01:28:08.628Z,1008.04
2018-02-10T01:29:08.599Z,1008.05
2018-02-10T01:30:08.575Z,1008.00
2018-02-10T01:31:08.549Z,1008.02
2018-02-10T01:32:08.521Z,1008.00
2018-02-10T01:33:08.497Z,1007.99
2018-02-10T01:34:08.472Z,1007.97
2018-02-10T01:35:08.447Z,1008.00
2018-02-10T01:36:08.420Z,1008.01
2018-02-10T01:37:08.396Z,1008.02
2018-02-10T01:38:08.379Z,1008.02
2018-02-10T01:39:08.353Z,1008.05
2018-02-10T01:40:08.318Z,1008.03
2018-02-10T01:41:08.314Z,1008.01
2018-02-10T01:42:08.268Z,1008.03
2018-02-10T01:43:08.239Z,1007.99
2018-02-10T01:44:08.214Z,1008.00
2018-02-10T01:45:08.189Z,1008.02
2018-02-10T01:46:08.165Z,1008.06
2018-02-10T01:47:08.154Z,1008.03
2018-02-10T01:48:08.114Z,1008.00
2018-02-10T01:49:08.211Z,1008.04
2018-02-10T01:50:08.072Z,1008.00
2018-02-10T01:51:08.036Z,1008.06
2018-02-10T01:52:08.080Z,1008.06
2018-02-10T01:53:07.989Z,1008.08
2018-02-10T01:54:07.957Z,1008.04
2018-02-10T01:55:07.952Z,1008.02
2018-02-10T01:56:07.907Z,1008.07
2018-02-10T01:57:07.916Z,1008.02
2018-02-10T01:58:07.857Z,1008.05
2018-02-10T01:59:07.833Z,1008.06
2018-02-10T02:00:07.804Z,1008.08
2018-02-10T02:01:07.785Z,1008.10
2018-02-10T02:02:07.757Z,1008.09
2018-02-10T02:03:07.726Z,1008.12
2018-02-10T02:04:07.702Z,1008.16
2018-02-10T02:05:07.675Z,1008.16
2018-02-10T02:06:07.691Z,1008.09
2018-02-10T02:07:07.624Z,1008.13
2018-02-10T02:08:07.602Z,1008.11
2018-02-10T02:09:07.581Z,1008.09
2018-02-10T02:10:07.548Z,1008.08
2018-02-10T02:11:07.526Z,1008.08
2018-02-10T02:12:07.497Z,1008.06
2018-02-10T02:13:07.472Z,1008.06
2018-02-10T02:14:07.445Z,1008.10
2018-02-10T02:15:07.421Z,1008.06
2018-02-10T02:16:07.393Z,1008.05
2018-02-10T02:17:07.364Z,1008.04
2018-02-10T02:18:07.340Z,1008.04
2018-02-10T02:19:07.315Z,1008.02
2018-02-10T02:20:07.313Z,1008.05
2018-02-10T02:21:07.279Z,1008.01
2018-02-10T02:22:07.250Z,1008.02
2018-02-10T02:23:07.212Z,1008.02
2018-02-10T02:24:07.185Z,1008.00
2018-02-10T02:25:07.161Z,1008.02
2018-02-10T02:26:07.135Z,1007.96
2018-02-10T02:27:07.108Z,1008.00
2018-02-10T02:28:07.081Z,1007.98
2018-02-10T02:29:07.067Z,1008.00
2018-02-10T02:30:07.030Z,1007.96
2018-02-10T02:31:07.095Z,1007.97
2018-02-10T02:32:06.978Z,1007.96
2018-02-10T02:33:06.957Z,1008.00
2018-02-10T02:34:06.933Z,1008.00
2018-02-10T02:35:06.899Z,1008.00
2018-02-10T02:36:06.878Z,1008.00
2018-02-10T02:37:06.850Z,1007.98
2018-02-10T02:38:06.831Z,1007.98
2018-02-10T02:39:06.798Z,1007.99
2018-02-10T02:40:06.771Z,1007.98
2018-02-10T02:41:06.747Z,1008.01
2018-02-10T02:42:06.719Z,1007.98
2018-02-10T02:43:06.691Z,1007.97
2018-02-10T02:44:06.669Z,1007.96
2018-02-10T02:45:06.644Z,1007.96
2018-02-10T02:46:06.616Z,1007.93
2018-02-10T02:47:06.589Z,1007.93
2018-02-10T02:48:06.565Z,1007.91
2018-02-10T02:49:06.538Z,1007.91
2018-02-10T02:50:06.510Z,1007.89
2018-02-10T02:51:06.493Z,1007.94
2018-02-10T02:52:06.457Z,1007.91
2018-02-10T02:53:06.438Z,1007.92
2018-02-10T02:54:06.408Z,1007.88
2018-02-10T02:55:06.382Z,1007.92
2018-02-10T02:56:06.357Z,1007.93
2018-02-10T02:57:06.328Z,1007.91
2018-02-10T02:58:06.306Z,1007.92
2018-02-10T02:59:06.280Z,1007.92
2018-02-10T03:00:06.254Z,1007.91
2018-02-10T03:01:06.224Z,1007.95
2018-02-10T03:02:06.199Z,1007.94
2018-02-10T03:03:06.174Z,1007.95
2018-02-10T03:04:06.150Z,1007.99
2018-02-10T03:05:06.124Z,1007.97
2018-02-10T03:06:06.099Z,1007.95
2018-02-10T03:07:06.120Z,1007.94
2018-02-10T03:08:06.046Z,1007.97
2018-02-10T03:09:06.027Z,1007.95
2018-02-10T03:10:06.003Z,1007.96
2018-02-10T03:11:05.971Z,1007.95
2018-02-10T03:12:05.944Z,1007.97
2018-02-10T03:13:05.918Z,1007.93
2018-02-10T03:14:05.893Z,1007.93
2018-02-10T03:15:05.864Z,1007.94
2018-02-10T03:16:05.845Z,1007.95
2018-02-10T03:17:05.814Z,1007.92
2018-02-10T03:18:05.791Z,1007.95
2018-02-10T03:19:05.760Z,1007.95
2018-02-10T03:20:05.736Z,1007.96
2018-02-10T03:21:05.710Z,1007.96
2018-02-10T03:22:05.683Z,1007.96
2018-02-10T03:23:05.660Z,1008.02
2018-02-10T03:24:05.629Z,1008.01
2018-02-10T03:25:05.606Z,1008.02
2018-02-10T03:26:05.580Z,1007.98
2018-02-10T03:27:05.553Z,1008.04
2018-02-10T03:28:05.530Z,1008.02
2018-02-10T03:29:05.504Z,1008.02
2018-02-10T03:30:05.479Z,1008.00
2018-02-10T03:31:05.449Z,1007.99
2018-02-10T03:32:05.466Z,1008.02
2018-02-10T03:33:05.399Z,1008.00
2018-02-10T03:34:05.381Z,1008.00
2018-02-10T03:35:05.355Z,1007.98
2018-02-10T03:36:05.320Z,1008.01
2018-02-10T03:37:05.293Z,1008.03
2018-02-10T03:38:05.268Z,1007.97
2018-02-10T03:39:05.241Z,1008.03
2018-02-10T03:40:05.220Z,1008.08
2018-02-10T03:41:05.192Z,1008.09
2018-02-10T03:42:05.168Z,1008.06
2018-02-10T03:43:05.141Z,1008.10
2018-02-10T03:44:05.110Z,1008.10
2018-02-10T03:45:05.088Z,1008.04
2018-02-10T03:46:05.168Z,1008.08
2018-02-10T03:47:05.037Z,1008.08
2018-02-10T03:48:05.010Z,1008.04
2018-02-10T03:49:04.988Z,1008.04
2018-02-10T03:50:04.958Z,1008.00
2018-02-10T03:51:04.933Z,1008.01
2018-02-10T03:52:04.909Z,1008.02
2018-02-10T03:53:04.884Z,1007.99
2018-02-10T03:54:04.857Z,1007.99
2018-02-10T03:55:04.830Z,1008.00
2018-02-10T03:56:04.806Z,1008.00
2018-02-10T03:57:04.792Z,1008.03
2018-02-10T03:58:04.755Z,1008.00
2018-02-10T03:59:04.725Z,1008.03
2018-02-10T04:00:04.701Z,1008.06
2018-02-10T04:01:04.678Z,1008.12
2018-02-10T04:02:04.651Z,1008.10
2018-02-10T04:03:04.625Z,1008.13
2018-02-10T04:04:04.599Z,1008.16
2018-02-10T04:05:04.574Z,1008.18
2018-02-10T04:06:04.548Z,1008.18
2018-02-10T04:07:04.522Z,1008.18
2018-02-10T04:08:04.549Z,1008.21
2018-02-10T04:09:04.469Z,1008.24
2018-02-10T04:10:04.447Z,1008.19
2018-02-10T04:11:04.460Z,1008.27
2018-02-10T04:12:04.393Z,1008.24
2018-02-10T04:13:04.369Z,1008.26
2018-02-10T04:14:04.350Z,1008.29
2018-02-10T04:15:04.317Z,1008.29
2018-02-10T04:16:04.293Z,1008.28
2018-02-10T04:17:04.266Z,1008.33
2018-02-10T04:18:04.248Z,1008.28
2018-02-10T04:19:04.213Z,1008.30
2018-02-10T04:20:04.188Z,1008.33
2018-02-10T04:21:04.166Z,1008.33
2018-02-10T04:22:04.137Z,1008.29
2018-02-10T04:23:04.113Z,1008.30
2018-02-10T04:24:04.089Z,1008.32
2018-02-10T04:25:04.063Z,1008.32
2018-02-10T04:26:04.038Z,1008.33
2018-02-10T04:27:04.014Z,1008.37
2018-02-10T04:28:03.989Z,1008.31
2018-02-10T04:29:03.961Z,1008.33
2018-02-10T04:30:03.939Z,1008.35
2018-02-10T04:31:03.913Z,1008.38
2018-02-10T04:32:03.902Z,1008.39
2018-02-10T04:33:03.861Z,1008.40
2018-02-10T04:34:03.843Z,1008.41
2018-02-10T04:35:03.812Z,1008.41
2018-02-10T04:36:03.784Z,1008.37
2018-02-10T04:37:03.758Z,1008.39
2018-02-10T04:38:03.733Z,1008.40
2018-02-10T04:39:03.711Z,1008.38
2018-02-10T04:40:03.685Z,1008.35
2018-02-10T04:41:03.661Z,1008.35
2018-02-10T04:42:03.637Z,1008.35
2018-02-10T04:43:03.608Z,1008.38
2018-02-10T04:44:03.763Z,1008.41
2018-02-10T04:45:03.563Z,1008.39
2018-02-10T04:46:03.532Z,1008.38
2018-02-10T04:47:03.515Z,1008.43
2018-02-10T04:48:03.482Z,1008.46
2018-02-10T04:49:03.459Z,1008.43
2018-02-10T04:50:03.439Z,1008.44
2018-02-10T04:51:03.406Z,1008.39
2018-02-10T04:52:03.383Z,1008.39
2018-02-10T04:53:03.359Z,1008.43
2018-02-10T04:54:03.333Z,1008.41
2018-02-10T04:55:03.308Z,1008.40
2018-02-10T04:56:03.286Z,1008.40
2018-02-10T04:57:03.260Z,1008.40
2018-02-10T04:58:03.231Z,1008.42
2018-02-10T04:59:03.208Z,1008.42
2018-02-10T05:00:03.183Z,1008.43
2018-02-10T05:01:03.157Z,1008.43
2018-02-10T05:02:03.130Z,1008.45
2018-02-10T05:03:03.112Z,1008.44
2018-02-10T05:04:03.084Z,1008.48
2018-02-10T05:05:03.060Z,1008.47
2018-02-10T05:06:03.033Z,1008.48
2018-02-10T05:07:03.006Z,1008.45
2018-02-10T05:08:02.983Z,1008.51
2018-02-10T05:09:02.964Z,1008.51
2018-02-10T05:10:02.937Z,1008.47
2018-02-10T05:11:02.907Z,1008.51
2018-02-10T05:12:02.998Z,1008.50
2018-02-10T05:13:02.868Z,1008.47
2018-02-10T05:14:02.837Z,1008.48
2018-02-10T05:15:02.809Z,1008.43
2018-02-10T05:16:02.787Z,1008.46
2018-02-10T05:17:02.758Z,1008.46
2018-02-10T05:18:02.737Z,1008.48
2018-02-10T05:19:02.709Z,1008.49
2018-02-10T05:20:02.692Z,1008.49
2018-02-10T05:21:02.660Z,1008.47
2018-02-10T05:22:02.640Z,1008.49
2018-02-10T05:23:02.634Z,1008.51
2018-02-10T05:24:02.591Z,1008.47
2018-02-10T05:25:02.560Z,1008.49
2018-02-10T05:26:02.606Z,1008.52
2018-02-10T05:27:02.510Z,1008.55
2018-02-10T05:28:02.485Z,1008.52
2018-02-10T05:29:02.460Z,1008.51
2018-02-10T05:30:02.435Z,1008.51
2018-02-10T05:31:02.410Z,1008.48
2018-02-10T05:32:02.384Z,1008.48
2018-02-10T05:33:02.358Z,1008.44
2018-02-10T05:34:02.335Z,1008.41
2018-02-10T05:35:02.312Z,1008.41
2018-02-10T05:36:02.283Z,1008.44
2018-02-10T05:37:02.260Z,1008.42
2018-02-10T05:38:02.245Z,1008.41
2018-02-10T05:39:02.218Z,1008.41
2018-02-10T05:40:02.193Z,1008.43
2018-02-10T05:41:02.164Z,1008.43
2018-02-10T05:42:02.135Z,1008.45
2018-02-10T05:43:02.112Z,1008.44
2018-02-10T05:44:02.084Z,1008.41
2018-02-10T05:45:02.094Z,1008.45
2018-02-10T05:46:02.037Z,1008.41
2018-02-10T05:47:02.008Z,1008.40
2018-02-10T05:48:01.990Z,1008.39
2018-02-10T05:49:01.962Z,1008.39
2018-02-10T05:50:01.935Z,1008.42
2018-02-10T05:51:01.985Z,1008.36
2018-02-10T05:52:01.881Z,1008.41
2018-02-10T05:53:01.856Z,1008.35
2018-02-10T05:54:01.837Z,1008.35
2018-02-10T05:55:01.806Z,1008.35
2018-02-10T05:56:01.788Z,1008.37
2018-02-10T05:57:01.761Z,1008.35
2018-02-10T05:58:01.732Z,1008.39
2018-02-10T05:59:01.712Z,1008.37
2018-02-10T06:00:01.681Z,1008.39
2018-02-10T06:01:01.655Z,1008.41
2018-02-10T06:02:01.634Z,1008.40
2018-02-10T06:03:01.605Z,1008.39
2018-02-10T06:04:01.582Z,1008.41
2018-02-10T06:05:01.556Z,1008.41
2018-02-10T06:06:01.530Z,1008.41
2018-02-10T06:07:01.502Z,1008.45
2018-02-10T06:08:01.495Z,1008.45
2018-02-10T06:09:01.451Z,1008.45
2018-02-10T06:10:01.429Z,1008.45
2018-02-10T06:11:01.400Z,1008.48
2018-02-10T06:12:01.379Z,1008.49
2018-02-10T06:13:01.351Z,1008.49
2018-02-10T06:14:01.326Z,1008.47
2018-02-10T06:15:01.298Z,1008.50
2018-02-10T06:16:01.281Z,1008.49
2018-02-10T06:17:01.257Z,1008.51
2018-02-10T06:18:01.224Z,1008.49
2018-02-10T06:19:01.197Z,1008.52
2018-02-10T06:20:01.172Z,1008.54
2018-02-10T06:21:01.147Z,1008.53
2018-02-10T06:22:01.120Z,1008.52
2018-02-10T06:23:01.097Z,1008.49
2018-02-10T06:24:01.176Z,1008.50
2018-02-10T06:25:01.055Z,1008.49
2018-02-10T06:26:01.019Z,1008.52
2018-02-10T06:27:01.079Z,1008.51
2018-02-10T06:28:00.970Z,1008.47
2018-02-10T06:29:00.947Z,1008.47
2018-02-10T06:30:00.921Z,1008.49
2018-02-10T06:31:00.895Z,1008.46
2018-02-10T06:32:00.871Z,1008.46
2018-02-10T06:33:00.846Z,1008.45
2018-02-10T06:34:00.835Z,1008.47
2018-02-10T06:35:00.792Z,1008.47
2018-02-10T06:36:00.766Z,1008.44
2018-02-10T06:37:00.741Z,1008.45
2018-02-10T06:38:00.718Z,1008.43
2018-02-10T06:39:00.695Z,1008.46
2018-02-10T06:40:00.665Z,1008.44
2018-02-10T06:41:00.642Z,1008.46
2018-02-10T06:42:00.615Z,1008.51
2018-02-10T06:43:00.598Z,1008.46
2018-02-10T06:44:00.565Z,1008.48
2018-02-10T06:45:00.540Z,1008.52
2018-02-10T06:46:00.679Z,1008.53
2018-02-10T06:47:00.489Z,1008.51
2018-02-10T06:48:00.470Z,1008.45
2018-02-10T06:49:00.552Z,1008.45
2018-02-10T06:50:00.442Z,1008.46
2018-02-10T06:51:00.390Z,1008.45
2018-02-10T06:52:00.370Z,1008.46
2018-02-10T06:53:00.339Z,1008.45
2018-02-10T06:54:00.315Z,1008.45
2018-02-10T06:55:00.296Z,1008.49
2018-02-10T06:56:00.262Z,1008.47
2018-02-10T06:57:00.238Z,1008.50
2018-02-10T06:58:00.230Z,1008.49
2018-02-10T06:59:00.188Z,1008.50
2018-02-10T07:00:00.173Z,1008.51
2018-02-10T07:01:00.137Z,1008.53
2018-02-10T07:02:00.128Z,1008.52
2018-02-10T07:03:00.096Z,1008.54
2018-02-10T07:04:00.066Z,1008.56
2018-02-10T07:05:00.038Z,1008.53
2018-02-10T07:06:00.034Z,1008.57
2018-02-10T07:06:59.987Z,1008.61
2018-02-10T07:07:59.961Z,1008.59
2018-02-10T07:08:59.935Z,1008.59
2018-02-10T07:09:59.915Z,1008.58
2018-02-10T07:10:59.886Z,1008.64
2018-02-10T07:11:59.861Z,1008.64
2018-02-10T07:12:59.836Z,1008.61
2018-02-10T07:13:59.810Z,1008.58
2018-02-10T07:14:59.785Z,1008.59
2018-02-10T07:15:59.760Z,1008.60
2018-02-10T07:16:59.745Z,1008.62
2018-02-10T07:17:59.719Z,1008.63
2018-02-10T07:18:59.793Z,1008.65
2018-02-10T07:19:59.666Z,1008.63
2018-02-10T07:20:59.635Z,1008.63
2018-02-10T07:21:59.684Z,1008.68
2018-02-10T07:22:59.584Z,1008.70
2018-02-10T07:23:59.568Z,1008.66
2018-02-10T07:24:59.590Z,1008.66
2018-02-10T07:25:59.510Z,1008.65
2018-02-10T07:26:59.483Z,1008.68
2018-02-10T07:27:59.460Z,1008.66
2018-02-10T07:28:59.446Z,1008.70
2018-02-10T07:29:59.410Z,1008.70
2018-02-10T07:30:59.387Z,1008.73
2018-02-10T07:31:59.361Z,1008.76
2018-02-10T07:32:59.338Z,1008.75
2018-02-10T07:33:59.314Z,1008.75
2018-02-10T07:34:59.307Z,1008.75
2018-02-10T07:35:59.263Z,1008.73
2018-02-10T07:36:59.249Z,1008.76
2018-02-10T07:37:59.212Z,1008.72
2018-02-10T07:38:59.197Z,1008.76
2018-02-10T07:39:59.163Z,1008.77
2018-02-10T07:40:59.138Z,1008.80
2018-02-10T07:41:59.112Z,1008.81
2018-02-10T07:42:59.088Z,1008.84
2018-02-10T07:43:59.115Z,1008.84
2018-02-10T07:44:59.039Z,1008.82
2018-02-10T07:45:59.011Z,1008.84
2018-02-10T07:46:59.160Z,1008.84
2018-02-10T07:47:58.969Z,1008.81
2018-02-10T07:48:58.937Z,1008.86
2018-02-10T07:49:58.916Z,1008.86
2018-02-10T07:50:58.887Z,1008.85
2018-02-10T07:51:58.879Z,1008.90
2018-02-10T07:52:58.888Z,1008.91
2018-02-10T07:53:58.815Z,1008.87
2018-02-10T07:54:58.955Z,1008.91
2018-02-10T07:55:58.760Z,1008.89
2018-02-10T07:56:58.737Z,1008.91
2018-02-10T07:57:58.817Z,1008.96
2018-02-10T07:58:58.684Z,1008.96
2018-02-10T07:59:58.680Z,1008.91
2018-02-10T08:00:58.689Z,1008.92
2018-02-10T08:01:58.614Z,1008.97
2018-02-10T08:02:58.596Z,1008.97
2018-02-10T08:03:58.563Z,1008.96
2018-02-10T08:04:58.536Z,1008.96
2018-02-10T08:05:58.514Z,1008.95
2018-02-10T08:06:58.487Z,1008.96
2018-02-10T08:07:58.463Z,1008.96
2018-02-10T08:08:58.442Z,1008.98
2018-02-10T08:09:58.412Z,1009.00
2018-02-10T08:10:58.396Z,1008.99
2018-02-10T08:11:58.366Z,1008.97
2018-02-10T08:12:58.341Z,1008.99
2018-02-10T08:13:58.321Z,1009.04
2018-02-10T08:14:58.287Z,1009.01
2018-02-10T08:15:58.277Z,1009.00
2018-02-10T08:16:58.237Z,1009.04
2018-02-10T08:17:58.213Z,1009.06
2018-02-10T08:18:58.187Z,1009.06
2018-02-10T08:19:58.175Z,1009.06
2018-02-10T08:20:58.136Z,1009.09
2018-02-10T08:21:58.115Z,1009.06
2018-02-10T08:22:58.106Z,1009.07
2018-02-10T08:23:58.064Z,1009.04
2018-02-10T08:24:58.039Z,1009.02
2018-02-10T08:25:58.066Z,1008.99
2018-02-10T08:26:58.000Z,1009.01
2018-02-10T08:27:57.970Z,1008.97
2018-02-10T08:28:57.996Z,1008.96
2018-02-10T08:29:57.913Z,1008.98
2018-02-10T08:30:57.890Z,1008.96
2018-02-10T08:31:57.866Z,1008.97
2018-02-10T08:32:57.839Z,1008.98
2018-02-10T08:33:57.818Z,1008.95
2018-02-10T08:34:57.790Z,1008.95
2018-02-10T08:35:57.763Z,1008.95
2018-02-10T08:36:57.811Z,1008.94
2018-02-10T08:37:57.714Z,1008.99
2018-02-10T08:38:57.689Z,1009.01
2018-02-10T08:39:57.669Z,1009.05
2018-02-10T08:40:57.642Z,1009.06
2018-02-10T08:41:57.620Z,1009.06
2018-02-10T08:42:57.591Z,1009.08
2018-02-10T08:43:57.570Z,1009.06
2018-02-10T08:44:57.545Z,1009.08
2018-02-10T08:45:57.519Z,1009.10
2018-02-10T08:46:57.490Z,1009.14
2018-02-10T08:47:57.468Z,1009.14
2018-02-10T08:48:57.452Z,1009.14
2018-02-10T08:49:57.421Z,1009.14
2018-02-10T08:50:57.397Z,1009.17
2018-02-10T08:51:57.369Z,1009.17
2018-02-10T08:52:57.347Z,1009.12
2018-02-10T08:53:57.323Z,1009.14
2018-02-10T08:54:57.296Z,1009.16
2018-02-10T08:55:57.290Z,1009.11
2018-02-10T08:56:57.255Z,1009.18
2018-02-10T08:57:57.235Z,1009.15
2018-02-10T08:58:57.273Z,1009.22
2018-02-10T08:59:57.187Z,1009.18
2018-02-10T09:00:57.150Z,1009.17
2018-02-10T09:01:57.190Z,1009.20
2018-02-10T09:02:57.102Z,1009.19
2018-02-10T09:03:57.087Z,1009.22
2018-02-10T09:04:57.055Z,1009.20
2018-02-10T09:05:57.033Z,1009.22
2018-02-10T09:06:57.004Z,1009.21
2018-02-10T09:07:56.989Z,1009.20
2018-02-10T09:08:56.958Z,1009.19
2018-02-10T09:09:56.986Z,1009.21
2018-02-10T09:10:56.907Z,1009.21
2018-02-10T09:11:56.896Z,1009.23
2018-02-10T09:12:56.857Z,1009.25
2018-02-10T09:13:56.838Z,1009.22
2018-02-10T09:14:56.816Z,1009.26
2018-02-10T09:15:56.790Z,1009.23
2018-02-10T09:16:56.767Z,1009.19
2018-02-10T09:17:56.748Z,1009.18
2018-02-10T09:18:56.726Z,1009.17
2018-02-10T09:19:56.688Z,1009.17
2018-02-10T09:20:56.667Z,1009.16
2018-02-10T09:21:56.644Z,1009.13
2018-02-10T09:22:56.616Z,1009.15
2018-02-10T09:23:56.592Z,1009.08
2018-02-10T09:24:56.572Z,1009.16
2018-02-10T09:25:56.574Z,1009.13
2018-02-10T09:26:56.522Z,1009.12
2018-02-10T09:27:56.494Z,1009.05
2018-02-10T09:28:56.476Z,1009.09
2018-02-10T09:29:56.449Z,1009.10
2018-02-10T09:30:56.425Z,1009.11
2018-02-10T09:31:56.402Z,1009.15
2018-02-10T09:32:56.387Z,1009.16
2018-02-10T09:33:56.353Z,1009.16
2018-02-10T09:34:56.343Z,1009.20
2018-02-10T09:35:56.301Z,1009.16
2018-02-10T09:36:56.284Z,1009.19
2018-02-10T09:37:56.354Z,1009.14
2018-02-10T09:38:56.238Z,1009.12
2018-02-10T09:39:56.297Z,1009.15
2018-02-10T09:40:56.184Z,1009.11
2018-02-10T09:41:56.161Z,1009.06
2018-02-10T09:42:56.140Z,1009.08
2018-02-10T09:43:56.127Z,1009.12
2018-02-10T09:44:56.091Z,1009.11
2018-02-10T09:45:56.065Z,1009.11
2018-02-10T09:46:56.040Z,1009.13
2018-02-10T09:47:56.037Z,1009.14
2018-02-10T09:48:55.993Z,1009.18
2018-02-10T09:49:55.978Z,1009.17
2018-02-10T09:50:55.946Z,1009.18
2018-02-10T09:51:55.929Z,1009.15
2018-02-10T09:52:55.900Z,1009.23
2018-02-10T09:53:55.876Z,1009.18
2018-02-10T09:54:55.849Z,1009.17
2018-02-10T09:55:55.830Z,1009.18
2018-02-10T09:56:55.804Z,1009.19
2018-02-10T09:57:55.782Z,1009.21
2018-02-10T09:58:55.752Z,1009.18
2018-02-10T09:59:55.790Z,1009.19
2018-02-10T10:00:55.709Z,1009.18
2018-02-10T10:01:55.693Z,1009.14
2018-02-10T10:02:55.709Z,1009.15
2018-02-10T10:03:55.646Z,1009.15
2018-02-10T10:04:55.637Z,1009.18
2018-02-10T10:05:55.594Z,1009.17
2018-02-10T10:06:55.570Z,1009.17
2018-02-10T10:07:55.556Z,1009.14
2018-02-10T10:08:55.520Z,1009.17
2018-02-10T10:09:55.497Z,1009.16
2018-02-10T10:10:55.474Z,1009.18
2018-02-10T10:11:55.450Z,1009.17
2018-02-10T10:12:55.458Z,1009.20
2018-02-10T10:13:55.425Z,1009.14
2018-02-10T10:14:55.378Z,1009.18
2018-02-10T10:15:55.366Z,1009.15
2018-02-10T10:16:55.333Z,1009.17
2018-02-10T10:17:55.309Z,1009.17
2018-02-10T10:18:55.286Z,1009.20
2018-02-10T10:19:55.276Z,1009.16
2018-02-10T10:20:55.240Z,1009.21
2018-02-10T10:21:55.234Z,1009.23
2018-02-10T10:22:55.191Z,1009.25
2018-02-10T10:23:55.171Z,1009.25
2018-02-10T10:24:55.164Z,1009.27
2018-02-10T10:25:55.120Z,1009.22
2018-02-10T10:26:55.098Z,1009.20
2018-02-10T10:27:55.076Z,1009.22
2018-02-10T10:28:55.050Z,1009.20
2018-02-10T10:29:55.029Z,1009.21
2018-02-10T10:30:55.006Z,1009.22
2018-02-10T10:31:54.979Z,1009.22
2018-02-10T10:32:54.969Z,1009.25
2018-02-10T10:33:54.937Z,1009.27
2018-02-10T10:34:54.906Z,1009.26
2018-02-10T10:35:54.902Z,1009.26
2018-02-10T10:36:54.858Z,1009.23
2018-02-10T10:37:54.835Z,1009.18
2018-02-10T10:38:54.816Z,1009.20
2018-02-10T10:39:54.787Z,1009.19
2018-02-10T10:40:54.765Z,1009.21
2018-02-10T10:41:54.742Z,1009.17
2018-02-10T10:42:54.718Z,1009.16
2018-02-10T10:43:54.694Z,1009.13
2018-02-10T10:44:54.672Z,1009.15
2018-02-10T10:45:54.650Z,1009.15
2018-02-10T10:46:54.625Z,1009.13
2018-02-10T10:47:54.606Z,1009.15
2018-02-10T10:48:54.577Z,1009.16
2018-02-10T10:49:54.554Z,1009.17
2018-02-10T10:50:54.532Z,1009.16
2018-02-10T10:51:54.503Z,1009.18
2018-02-10T10:52:54.483Z,1009.14
2018-02-10T10:53:54.465Z,1009.14
2018-02-10T10:54:54.452Z,1009.18
2018-02-10T10:55:54.417Z,1009.22
2018-02-10T10:56:54.393Z,1009.21
2018-02-10T10:57:54.375Z,1009.21
2018-02-10T10:58:54.342Z,1009.24
2018-02-10T10:59:54.316Z,1009.26
2018-02-10T11:00:54.302Z,1009.24
2018-02-10T11:01:54.283Z,1009.23
2018-02-10T11:02:54.246Z,1009.27
2018-02-10T11:03:54.222Z,1009.26
2018-02-10T11:04:54.200Z,1009.26
2018-02-10T11:05:54.257Z,1009.28
2018-02-10T11:06:54.151Z,1009.23
2018-02-10T11:07:54.136Z,1009.26
2018-02-10T11:08:54.110Z,1009.22
2018-02-10T11:09:54.088Z,1009.21
2018-02-10T11:10:54.084Z,1009.21
2018-02-10T11:11:54.032Z,1009.27
2018-02-10T11:12:54.010Z,1009.24
2018-02-10T11:13:53.999Z,1009.21
2018-02-10T11:14:53.961Z,1009.19
2018-02-10T11:15:53.940Z,1009.17
2018-02-10T11:16:53.931Z,1009.17
2018-02-10T11:17:53.891Z,1009.20
2018-02-10T11:18:53.869Z,1009.17
2018-02-10T11:19:53.843Z,1009.19
2018-02-10T11:20:53.827Z,1009.16
2018-02-10T11:21:53.851Z,1009.14
2018-02-10T11:22:53.772Z,1009.13
2018-02-10T11:23:53.754Z,1009.16
2018-02-10T11:24:53.729Z,1009.12
2018-02-10T11:25:53.712Z,1009.11
2018-02-10T11:26:53.681Z,1009.10
2018-02-10T11:27:53.657Z,1009.13
2018-02-10T11:28:53.631Z,1009.15
2018-02-10T11:29:53.625Z,1009.21
2018-02-10T11:30:53.586Z,1009.15
2018-02-10T11:31:53.561Z,1009.17
2018-02-10T11:32:53.557Z,1009.15
2018-02-10T11:33:53.517Z,1009.18
2018-02-10T11:34:53.490Z,1009.17
2018-02-10T11:35:53.472Z,1009.19
2018-02-10T11:36:53.453Z,1009.15
2018-02-10T11:37:53.426Z,1009.13
2018-02-10T11:38:53.400Z,1009.15
2018-02-10T11:39:53.376Z,1009.17
2018-02-10T11:40:53.386Z,1009.16
2018-02-10T11:41:53.331Z,1009.18
2018-02-10T11:42:53.305Z,1009.19
2018-02-10T11:43:53.296Z,1009.16
2018-02-10T11:44:53.269Z,1009.18
2018-02-10T11:45:53.254Z,1009.16
2018-02-10T11:46:53.215Z,1009.20
2018-02-10T11:47:53.187Z,1009.20
2018-02-10T11:48:53.168Z,1009.11
2018-02-10T11:49:53.152Z,1009.18
2018-02-10T11:50:53.117Z,1009.13
2018-02-10T11:51:53.110Z,1009.15
2018-02-10T11:52:53.075Z,1009.11
2018-02-10T11:53:53.048Z,1009.12
2018-02-10T11:54:53.027Z,1009.05
2018-02-10T11:55:53.029Z,1009.04
2018-02-10T11:56:52.982Z,1009.03
2018-02-10T11:57:52.955Z,1008.97
2018-02-10T11:58:52.935Z,1008.98
2018-02-10T11:59:52.912Z,1009.03
2018-02-10T12:00:52.890Z,1008.96
2018-02-10T12:01:52.865Z,1009.01
2018-02-10T12:02:52.843Z,1009.00
2018-02-10T12:03:52.818Z,1008.98
2018-02-10T12:04:52.802Z,1008.99